PWSweather.com
Personal Weather Stations
Station Observations
KNCGREEN1000
Bell Orchard Drive, Greensboro, NC 27455

Bell Orchard DriveGreensboro, NC 27455

Lat: 36.132, Lon: -79.8

Elevation: 876

Station Type: Acurite Atlas

Http://www.gilhutcheson.com

High Low Average
Temperature 55.4°F13.0°C 39.6°F4.2°C 45.5°F7.5°C
Dew Point 49.7°F9.8°C 34.7°F1.5°C 41.8°F5.4°C
Winds 15.0 mph 24.1 kmh Calm Calm 3.0 mph SSW4.8 kmh SSW
Wind Gusts -- -- --
Humidity 100% 63% 88%
Pressure 29.90 in1012.5 mb 29.55 in1000.7 mb -
Precipitation 0.21 in5.3 mm - -
Hour Temp Dew Point Humidity Winds Wind Gusts Pressure Precip Precip Rate Daily Precip Total
12:03 AM 39.6°F4.2°C 39.6°F4.2°C 100% 5.0 mph NNE8.0 kmh NNE -- 29.80 in1009.1 mb 0.00 in0.0 mm 0.00 in0.0 mm 0.00 in0.0 mm
12:08 AM 39.7°F4.3°C 39.7°F4.3°C 100% 3.0 mph N4.8 kmh N -- 29.80 in1009.1 mb 0.00 in0.0 mm 0.00 in0.0 mm 0.00 in0.0 mm
12:13 AM 39.7°F4.3°C 39.7°F4.3°C 100% 2.0 mph NE3.2 kmh NE -- 29.80 in1009.1 mb 0.00 in0.0 mm 0.00 in0.0 mm 0.00 in0.0 mm
12:18 AM 39.6°F4.2°C 39.6°F4.2°C 100% 4.0 mph NE6.4 kmh NE -- 29.79 in1008.8 mb 0.00 in0.0 mm 0.00 in0.0 mm 0.00 in0.0 mm
12:23 AM 39.6°F4.2°C 39.6°F4.2°C 100% 4.0 mph NE6.4 kmh NE -- 29.79 in1008.8 mb 0.00 in0.0 mm 0.00 in0.0 mm 0.00 in0.0 mm
12:28 AM 39.6°F4.2°C 39.6°F4.2°C 100% 4.0 mph N6.4 kmh N -- 29.77 in1008.1 mb 0.00 in0.0 mm 0.00 in0.0 mm 0.00 in0.0 mm
12:33 AM 39.7°F4.3°C 39.7°F4.3°C 100% 2.0 mph N3.2 kmh N -- 29.77 in1008.1 mb 0.00 in0.0 mm 0.00 in0.0 mm 0.00 in0.0 mm
12:38 AM 39.7°F4.3°C 39.7°F4.3°C 100% 4.0 mph NE6.4 kmh NE -- 29.77 in1008.1 mb 0.00 in0.0 mm 0.00 in0.0 mm 0.00 in0.0 mm
12:43 AM 39.8°F4.3°C 39.7°F4.3°C 100% 4.0 mph NW6.4 kmh NW -- 29.77 in1008.1 mb 0.00 in0.0 mm 0.00 in0.0 mm 0.00 in0.0 mm
12:48 AM 39.7°F4.3°C 39.7°F4.3°C 100% 3.0 mph NNW4.8 kmh NNW -- 29.76 in1007.8 mb 0.00 in0.0 mm 0.00 in0.0 mm 0.00 in0.0 mm
12:53 AM 39.9°F4.4°C 39.9°F4.4°C 100% 3.0 mph N4.8 kmh N -- 29.77 in1008.1 mb 0.00 in0.0 mm 0.00 in0.0 mm 0.00 in0.0 mm
12:58 AM 39.9°F4.4°C 39.9°F4.4°C 100% 3.0 mph NNE4.8 kmh NNE -- 29.77 in1008.1 mb 0.00 in0.0 mm 0.00 in0.0 mm 0.00 in0.0 mm
01:03 AM 39.9°F4.4°C 39.9°F4.4°C 100% 3.0 mph NNW4.8 kmh NNW -- 29.76 in1007.8 mb 0.00 in0.0 mm 0.00 in0.0 mm 0.00 in0.0 mm
01:08 AM 39.9°F4.4°C 39.9°F4.4°C 100% 3.0 mph N4.8 kmh N -- 29.76 in1007.8 mb 0.00 in0.0 mm 0.00 in0.0 mm 0.00 in0.0 mm
01:13 AM 40.0°F4.4°C 39.9°F4.4°C 100% 3.0 mph NNE4.8 kmh NNE -- 29.75 in1007.5 mb 0.00 in0.0 mm 0.00 in0.0 mm 0.00 in0.0 mm
01:20 AM 40.0°F4.4°C 39.9°F4.4°C 100% 3.0 mph NNE4.8 kmh NNE -- 29.74 in1007.1 mb 0.00 in0.0 mm 0.00 in0.0 mm 0.00 in0.0 mm
01:23 AM 40.0°F4.4°C 39.9°F4.4°C 100% 4.0 mph NNE6.4 kmh NNE -- 29.74 in1007.1 mb 0.00 in0.0 mm 0.00 in0.0 mm 0.00 in0.0 mm
01:28 AM 40.1°F4.5°C 40.1°F4.5°C 100% 3.0 mph NE4.8 kmh NE -- 29.74 in1007.1 mb 0.00 in0.0 mm 0.00 in0.0 mm 0.00 in0.0 mm
01:33 AM 40.1°F4.5°C 40.1°F4.5°C 100% 3.0 mph NNE4.8 kmh NNE -- 29.74 in1007.1 mb 0.00 in0.0 mm 0.00 in0.0 mm 0.00 in0.0 mm
01:38 AM 40.1°F4.5°C 40.1°F4.5°C 100% 3.0 mph ENE4.8 kmh ENE -- 29.74 in1007.1 mb 0.00 in0.0 mm 0.00 in0.0 mm 0.00 in0.0 mm
01:43 AM 40.1°F4.5°C 40.1°F4.5°C 100% 2.0 mph E3.2 kmh E -- 29.73 in1006.8 mb 0.00 in0.0 mm 0.00 in0.0 mm 0.00 in0.0 mm
01:48 AM 40.2°F4.6°C 40.3°F4.6°C 100% 2.0 mph E3.2 kmh E -- 29.73 in1006.8 mb 0.00 in0.0 mm 0.00 in0.0 mm 0.00 in0.0 mm
01:53 AM 40.2°F4.6°C 40.3°F4.6°C 100% 4.0 mph NNE6.4 kmh NNE -- 29.72 in1006.4 mb 0.00 in0.0 mm 0.00 in0.0 mm 0.00 in0.0 mm
01:58 AM 40.3°F4.6°C 40.3°F4.6°C 100% 3.0 mph N4.8 kmh N -- 29.72 in1006.4 mb 0.00 in0.0 mm 0.00 in0.0 mm 0.00 in0.0 mm
02:03 AM 40.3°F4.6°C 40.3°F4.6°C 100% 3.0 mph NNE4.8 kmh NNE -- 29.71 in1006.1 mb 0.00 in0.0 mm 0.00 in0.0 mm 0.00 in0.0 mm
02:08 AM 40.4°F4.7°C 40.5°F4.7°C 100% 2.0 mph ENE3.2 kmh ENE -- 29.71 in1006.1 mb 0.00 in0.0 mm 0.00 in0.0 mm 0.00 in0.0 mm
02:13 AM 40.3°F4.6°C 40.3°F4.6°C 100% 1.0 mph ESE1.6 kmh ESE -- 29.70 in1005.8 mb 0.00 in0.0 mm 0.00 in0.0 mm 0.00 in0.0 mm
02:18 AM 40.4°F4.7°C 40.5°F4.7°C 100% 3.0 mph NE4.8 kmh NE -- 29.70 in1005.8 mb 0.00 in0.0 mm 0.00 in0.0 mm 0.00 in0.0 mm
02:23 AM 40.4°F4.7°C 40.5°F4.7°C 100% 2.0 mph E3.2 kmh E -- 29.69 in1005.4 mb 0.00 in0.0 mm 0.00 in0.0 mm 0.00 in0.0 mm
02:28 AM 40.5°F4.7°C 40.5°F4.7°C 100% 2.0 mph NE3.2 kmh NE -- 29.69 in1005.4 mb 0.00 in0.0 mm 0.00 in0.0 mm 0.00 in0.0 mm
02:33 AM 40.5°F4.7°C 40.5°F4.7°C 100% 2.0 mph E3.2 kmh E -- 29.68 in1005.1 mb 0.00 in0.0 mm 0.00 in0.0 mm 0.00 in0.0 mm
02:38 AM 40.6°F4.8°C 40.6°F4.8°C 100% 1.0 mph NE1.6 kmh NE -- 29.68 in1005.1 mb 0.00 in0.0 mm 0.00 in0.0 mm 0.00 in0.0 mm
02:43 AM 40.7°F4.8°C 40.6°F4.8°C 100% 3.0 mph N4.8 kmh N -- 29.67 in1004.7 mb 0.00 in0.0 mm 0.00 in0.0 mm 0.00 in0.0 mm
02:48 AM 40.6°F4.8°C 40.6°F4.8°C 100% 2.0 mph NE3.2 kmh NE -- 29.66 in1004.4 mb 0.00 in0.0 mm 0.00 in0.0 mm 0.00 in0.0 mm
02:53 AM 40.7°F4.8°C 40.6°F4.8°C 100% 1.0 mph E1.6 kmh E -- 29.66 in1004.4 mb 0.00 in0.0 mm 0.00 in0.0 mm 0.00 in0.0 mm
02:58 AM 40.8°F4.9°C 40.8°F4.9°C 100% 2.0 mph NE3.2 kmh NE -- 29.66 in1004.4 mb 0.00 in0.0 mm 0.00 in0.0 mm 0.00 in0.0 mm
03:03 AM 40.8°F4.9°C 40.8°F4.9°C 100% 1.0 mph SE1.6 kmh SE -- 29.66 in1004.4 mb 0.00 in0.0 mm 0.00 in0.0 mm 0.00 in0.0 mm
03:08 AM 40.8°F4.9°C 40.8°F4.9°C 100% Calm Calm -- 29.67 in1004.7 mb 0.00 in0.0 mm 0.00 in0.0 mm 0.00 in0.0 mm
03:13 AM 40.8°F4.9°C 40.8°F4.9°C 100% 1.0 mph SSW1.6 kmh SSW -- 29.68 in1005.1 mb 0.00 in0.0 mm 0.00 in0.0 mm 0.00 in0.0 mm
03:18 AM 40.8°F4.9°C 40.8°F4.9°C 100% Calm Calm -- 29.69 in1005.4 mb 0.00 in0.0 mm 0.00 in0.0 mm 0.00 in0.0 mm
03:23 AM 40.8°F4.9°C 40.8°F4.9°C 100% Calm Calm -- 29.69 in1005.4 mb 0.00 in0.0 mm 0.00 in0.0 mm 0.00 in0.0 mm
03:28 AM 40.9°F4.9°C 40.8°F4.9°C 100% 2.0 mph E3.2 kmh E -- 29.69 in1005.4 mb 0.00 in0.0 mm 0.00 in0.0 mm 0.00 in0.0 mm
03:33 AM 40.9°F4.9°C 40.8°F4.9°C 100% 2.0 mph NW3.2 kmh NW -- 29.68 in1005.1 mb 0.00 in0.0 mm 0.00 in0.0 mm 0.00 in0.0 mm
03:38 AM 40.9°F4.9°C 40.8°F4.9°C 100% 1.0 mph ESE1.6 kmh ESE -- 29.68 in1005.1 mb 0.00 in0.0 mm 0.00 in0.0 mm 0.00 in0.0 mm
03:43 AM 41.0°F5.0°C 41.0°F5.0°C 100% 2.0 mph NE3.2 kmh NE -- 29.68 in1005.1 mb 0.01 in0.3 mm 0.12 in3.0 mm 0.01 in0.3 mm
03:48 AM 41.0°F5.0°C 41.0°F5.0°C 100% 2.0 mph N3.2 kmh N -- 29.67 in1004.7 mb 0.01 in0.3 mm 0.00 in0.0 mm 0.01 in0.3 mm
03:53 AM 40.9°F4.9°C 40.8°F4.9°C 100% 2.0 mph W3.2 kmh W -- 29.67 in1004.7 mb 0.01 in0.3 mm 0.00 in0.0 mm 0.01 in0.3 mm
03:58 AM 41.0°F5.0°C 41.0°F5.0°C 100% 3.0 mph NNW4.8 kmh NNW -- 29.67 in1004.7 mb 0.01 in0.3 mm 0.00 in0.0 mm 0.01 in0.3 mm
04:03 AM 40.9°F4.9°C 40.8°F4.9°C 100% 2.0 mph ENE3.2 kmh ENE -- 29.67 in1004.7 mb 0.02 in0.5 mm 0.01 in0.3 mm 0.02 in0.5 mm
04:08 AM 41.1°F5.1°C 41.2°F5.1°C 100% 3.0 mph SW4.8 kmh SW -- 29.67 in1004.7 mb 0.03 in0.8 mm 0.12 in3.0 mm 0.03 in0.8 mm
04:13 AM 41.1°F5.1°C 41.2°F5.1°C 100% 6.0 mph SW9.7 kmh SW -- 29.70 in1005.8 mb 0.08 in2.0 mm 0.60 in15.2 mm 0.08 in2.0 mm
04:18 AM 41.2°F5.1°C 41.2°F5.1°C 100% 9.0 mph WNW14.5 kmh WNW -- 29.72 in1006.4 mb 0.12 in3.0 mm 0.48 in12.2 mm 0.12 in3.0 mm
04:23 AM 41.2°F5.1°C 41.2°F5.1°C 100% 1.0 mph ESE1.6 kmh ESE -- 29.72 in1006.4 mb 0.14 in3.6 mm 0.24 in6.1 mm 0.14 in3.6 mm
04:28 AM 41.3°F5.2°C 41.4°F5.2°C 100% 3.0 mph WSW4.8 kmh WSW -- 29.70 in1005.8 mb 0.15 in3.8 mm 0.12 in3.0 mm 0.15 in3.8 mm
04:33 AM 41.3°F5.2°C 41.4°F5.2°C 100% 3.0 mph NNW4.8 kmh NNW -- 29.69 in1005.4 mb 0.16 in4.1 mm 0.12 in3.0 mm 0.16 in4.1 mm
04:38 AM 41.2°F5.1°C 41.2°F5.1°C 100% 3.0 mph NE4.8 kmh NE -- 29.67 in1004.7 mb 0.15 in3.8 mm 0.00 in0.0 mm 0.16 in4.1 mm
04:43 AM 41.4°F5.2°C 41.4°F5.2°C 100% 1.0 mph SE1.6 kmh SE -- 29.65 in1004.1 mb 0.16 in4.1 mm 0.12 in3.0 mm 0.17 in4.3 mm
04:48 AM 41.5°F5.3°C 41.5°F5.3°C 100% 2.0 mph NE3.2 kmh NE -- 29.64 in1003.7 mb 0.16 in4.1 mm 0.00 in0.0 mm 0.17 in4.3 mm
04:53 AM 41.4°F5.2°C 41.4°F5.2°C 100% 4.0 mph NNE6.4 kmh NNE -- 29.63 in1003.4 mb 0.16 in4.1 mm 0.00 in0.0 mm 0.17 in4.3 mm
04:58 AM 41.4°F5.2°C 41.4°F5.2°C 100% 2.0 mph SW3.2 kmh SW -- 29.62 in1003.0 mb 0.14 in3.6 mm 0.00 in0.0 mm 0.17 in4.3 mm
05:03 AM 41.3°F5.2°C 41.4°F5.2°C 100% 1.0 mph WSW1.6 kmh WSW -- 29.63 in1003.4 mb 0.14 in3.6 mm 0.00 in0.0 mm 0.17 in4.3 mm
05:08 AM 41.3°F5.2°C 41.4°F5.2°C 100% 3.0 mph NW4.8 kmh NW -- 29.63 in1003.4 mb 0.05 in1.3 mm 0.00 in0.0 mm 0.17 in4.3 mm
05:13 AM 41.4°F5.2°C 41.4°F5.2°C 100% 1.0 mph ESE1.6 kmh ESE -- 29.63 in1003.4 mb 0.05 in1.3 mm 0.00 in0.0 mm 0.17 in4.3 mm
05:18 AM 41.4°F5.2°C 41.4°F5.2°C 100% 4.0 mph NE6.4 kmh NE -- 29.62 in1003.0 mb 0.02 in0.5 mm 0.00 in0.0 mm 0.17 in4.3 mm
05:23 AM 41.3°F5.2°C 41.4°F5.2°C 100% 3.0 mph WNW4.8 kmh WNW -- 29.61 in1002.7 mb 0.02 in0.5 mm 0.00 in0.0 mm 0.17 in4.3 mm
05:28 AM 41.4°F5.2°C 41.4°F5.2°C 100% 3.0 mph WNW4.8 kmh WNW -- 29.62 in1003.0 mb 0.01 in0.3 mm 0.00 in0.0 mm 0.17 in4.3 mm
05:33 AM 41.3°F5.2°C 41.4°F5.2°C 100% 2.0 mph NW3.2 kmh NW -- 29.63 in1003.4 mb 0.01 in0.3 mm 0.00 in0.0 mm 0.17 in4.3 mm
05:38 AM 41.4°F5.2°C 41.4°F5.2°C 100% 1.0 mph WSW1.6 kmh WSW -- 29.62 in1003.0 mb 0.00 in0.0 mm 0.00 in0.0 mm 0.17 in4.3 mm
05:43 AM 41.5°F5.3°C 41.5°F5.3°C 100% 1.0 mph SSE1.6 kmh SSE -- 29.62 in1003.0 mb 0.00 in0.0 mm 0.00 in0.0 mm 0.17 in4.3 mm
05:48 AM 41.4°F5.2°C 41.4°F5.2°C 100% 2.0 mph S3.2 kmh S -- 29.62 in1003.0 mb 0.00 in0.0 mm 0.00 in0.0 mm 0.17 in4.3 mm
05:53 AM 41.5°F5.3°C 41.5°F5.3°C 100% 3.0 mph NNE4.8 kmh NNE -- 29.62 in1003.0 mb 0.00 in0.0 mm 0.00 in0.0 mm 0.17 in4.3 mm
05:58 AM 41.6°F5.3°C 41.5°F5.3°C 100% 3.0 mph ENE4.8 kmh ENE -- 29.61 in1002.7 mb 0.00 in0.0 mm 0.00 in0.0 mm 0.17 in4.3 mm
06:03 AM 41.6°F5.3°C 41.5°F5.3°C 100% 1.0 mph SE1.6 kmh SE -- 29.60 in1002.4 mb 0.00 in0.0 mm 0.00 in0.0 mm 0.17 in4.3 mm
06:08 AM 41.7°F5.4°C 41.7°F5.4°C 100% Calm Calm -- 29.60 in1002.4 mb 0.00 in0.0 mm 0.00 in0.0 mm 0.17 in4.3 mm
06:13 AM 41.6°F5.3°C 41.5°F5.3°C 100% Calm Calm -- 29.59 in1002.0 mb 0.00 in0.0 mm 0.00 in0.0 mm 0.17 in4.3 mm
06:18 AM 41.6°F5.3°C 41.5°F5.3°C 100% Calm Calm -- 29.60 in1002.4 mb 0.00 in0.0 mm 0.00 in0.0 mm 0.17 in4.3 mm
06:23 AM 41.6°F5.3°C 41.5°F5.3°C 100% Calm Calm -- 29.60 in1002.4 mb 0.00 in0.0 mm 0.00 in0.0 mm 0.17 in4.3 mm
06:28 AM 41.6°F5.3°C 41.5°F5.3°C 100% Calm Calm -- 29.59 in1002.0 mb 0.00 in0.0 mm 0.00 in0.0 mm 0.17 in4.3 mm
06:33 AM 41.6°F5.3°C 41.5°F5.3°C 100% Calm Calm -- 29.60 in1002.4 mb 0.00 in0.0 mm 0.00 in0.0 mm 0.17 in4.3 mm
06:38 AM 41.6°F5.3°C 41.5°F5.3°C 100% Calm Calm -- 29.59 in1002.0 mb 0.00 in0.0 mm 0.00 in0.0 mm 0.17 in4.3 mm
06:43 AM 41.7°F5.4°C 41.7°F5.4°C 100% 1.0 mph S1.6 kmh S -- 29.60 in1002.4 mb 0.00 in0.0 mm 0.00 in0.0 mm 0.17 in4.3 mm
06:48 AM 41.7°F5.4°C 41.7°F5.4°C 100% Calm Calm -- 29.60 in1002.4 mb 0.00 in0.0 mm 0.00 in0.0 mm 0.17 in4.3 mm
06:53 AM 41.8°F5.4°C 41.7°F5.4°C 100% 2.0 mph SE3.2 kmh SE -- 29.59 in1002.0 mb 0.00 in0.0 mm 0.00 in0.0 mm 0.17 in4.3 mm
06:58 AM 41.8°F5.4°C 41.7°F5.4°C 100% Calm Calm -- 29.59 in1002.0 mb 0.00 in0.0 mm 0.00 in0.0 mm 0.17 in4.3 mm
07:03 AM 41.9°F5.5°C 41.9°F5.5°C 100% Calm Calm -- 29.59 in1002.0 mb 0.00 in0.0 mm 0.00 in0.0 mm 0.17 in4.3 mm
07:08 AM 41.9°F5.5°C 41.9°F5.5°C 100% Calm Calm -- 29.60 in1002.4 mb 0.00 in0.0 mm 0.00 in0.0 mm 0.17 in4.3 mm
07:13 AM 42.0°F5.6°C 42.1°F5.6°C 100% 1.0 mph SE1.6 kmh SE -- 29.60 in1002.4 mb 0.01 in0.3 mm 0.12 in3.0 mm 0.18 in4.6 mm
07:18 AM 42.1°F5.6°C 42.1°F5.6°C 100% Calm Calm -- 29.60 in1002.4 mb 0.01 in0.3 mm 0.00 in0.0 mm 0.18 in4.6 mm
07:23 AM 42.2°F5.7°C 42.3°F5.7°C 100% 1.0 mph SE1.6 kmh SE -- 29.59 in1002.0 mb 0.02 in0.5 mm 0.12 in3.0 mm 0.19 in4.8 mm
07:28 AM 42.2°F5.7°C 42.3°F5.7°C 100% 1.0 mph SSE1.6 kmh SSE -- 29.59 in1002.0 mb 0.03 in0.8 mm 0.12 in3.0 mm 0.20 in5.1 mm
07:33 AM 42.2°F5.7°C 42.3°F5.7°C 100% 2.0 mph SE3.2 kmh SE -- 29.59 in1002.0 mb 0.03 in0.8 mm 0.00 in0.0 mm 0.20 in5.1 mm
07:38 AM 42.2°F5.7°C 42.3°F5.7°C 100% 2.0 mph S3.2 kmh S -- 29.59 in1002.0 mb 0.03 in0.8 mm 0.00 in0.0 mm 0.20 in5.1 mm
07:43 AM 42.3°F5.7°C 42.3°F5.7°C 100% Calm Calm -- 29.59 in1002.0 mb 0.03 in0.8 mm 0.00 in0.0 mm 0.20 in5.1 mm
07:48 AM 42.2°F5.7°C 42.3°F5.7°C 100% 2.0 mph SE3.2 kmh SE -- 29.58 in1001.7 mb 0.03 in0.8 mm 0.00 in0.0 mm 0.20 in5.1 mm
07:53 AM 42.1°F5.6°C 42.1°F5.6°C 100% 2.0 mph SSE3.2 kmh SSE -- 29.58 in1001.7 mb 0.03 in0.8 mm 0.00 in0.0 mm 0.20 in5.1 mm
07:58 AM 42.1°F5.6°C 42.1°F5.6°C 100% 3.0 mph SSW4.8 kmh SSW -- 29.57 in1001.4 mb 0.03 in0.8 mm 0.00 in0.0 mm 0.20 in5.1 mm
08:03 AM 42.2°F5.7°C 42.3°F5.7°C 100% 1.0 mph SSW1.6 kmh SSW -- 29.59 in1002.0 mb 0.03 in0.8 mm 0.00 in0.0 mm 0.20 in5.1 mm
08:08 AM 42.2°F5.7°C 42.3°F5.7°C 100% 2.0 mph SW3.2 kmh SW -- 29.60 in1002.4 mb 0.02 in0.5 mm 0.00 in0.0 mm 0.20 in5.1 mm
08:13 AM 42.3°F5.7°C 42.3°F5.7°C 100% Calm Calm -- 29.59 in1002.0 mb 0.02 in0.5 mm 0.00 in0.0 mm 0.20 in5.1 mm
08:18 AM 42.3°F5.7°C 42.3°F5.7°C 100% Calm Calm -- 29.58 in1001.7 mb 0.00 in0.0 mm 0.00 in0.0 mm 0.20 in5.1 mm
08:23 AM 42.4°F5.8°C 42.4°F5.8°C 100% 1.0 mph S1.6 kmh S -- 29.60 in1002.4 mb 0.00 in0.0 mm 0.00 in0.0 mm 0.20 in5.1 mm
08:28 AM 42.7°F5.9°C 42.6°F5.9°C 100% 4.0 mph SSW6.4 kmh SSW -- 29.61 in1002.7 mb 0.00 in0.0 mm 0.00 in0.0 mm 0.20 in5.1 mm
08:33 AM 43.0°F6.1°C 43.0°F6.1°C 100% Calm Calm -- 29.61 in1002.7 mb 0.00 in0.0 mm 0.00 in0.0 mm 0.20 in5.1 mm
08:38 AM 43.1°F6.2°C 43.2°F6.2°C 100% 2.0 mph WSW3.2 kmh WSW -- 29.60 in1002.4 mb 0.00 in0.0 mm 0.00 in0.0 mm 0.20 in5.1 mm
08:43 AM 43.0°F6.1°C 43.0°F6.1°C 100% 1.0 mph S1.6 kmh S -- 29.60 in1002.4 mb 0.00 in0.0 mm 0.00 in0.0 mm 0.20 in5.1 mm
08:48 AM 43.3°F6.3°C 43.3°F6.3°C 100% Calm Calm -- 29.59 in1002.0 mb 0.00 in0.0 mm 0.00 in0.0 mm 0.20 in5.1 mm
08:53 AM 43.4°F6.3°C 43.3°F6.3°C 100% 3.0 mph WSW4.8 kmh WSW -- 29.59 in1002.0 mb 0.00 in0.0 mm 0.00 in0.0 mm 0.20 in5.1 mm
08:58 AM 43.7°F6.5°C 43.7°F6.5°C 100% 2.0 mph ENE3.2 kmh ENE -- 29.59 in1002.0 mb 0.00 in0.0 mm 0.00 in0.0 mm 0.20 in5.1 mm
09:03 AM 44.0°F6.7°C 44.1°F6.7°C 100% 2.0 mph S3.2 kmh S -- 29.59 in1002.0 mb 0.00 in0.0 mm 0.00 in0.0 mm 0.20 in5.1 mm
09:08 AM 44.1°F6.7°C 44.1°F6.7°C 100% 2.0 mph WSW3.2 kmh WSW -- 29.59 in1002.0 mb 0.00 in0.0 mm 0.00 in0.0 mm 0.20 in5.1 mm
09:13 AM 44.4°F6.9°C 44.4°F6.9°C 100% Calm Calm -- 29.59 in1002.0 mb 0.00 in0.0 mm 0.00 in0.0 mm 0.20 in5.1 mm
09:18 AM 44.4°F6.9°C 44.4°F6.9°C 100% 3.0 mph SW4.8 kmh SW -- 29.59 in1002.0 mb 0.00 in0.0 mm 0.00 in0.0 mm 0.20 in5.1 mm
09:23 AM 44.4°F6.9°C 44.4°F6.9°C 100% 1.0 mph SSW1.6 kmh SSW -- 29.59 in1002.0 mb 0.00 in0.0 mm 0.00 in0.0 mm 0.20 in5.1 mm
09:28 AM 44.4°F6.9°C 44.4°F6.9°C 100% 3.0 mph NW4.8 kmh NW -- 29.59 in1002.0 mb 0.00 in0.0 mm 0.00 in0.0 mm 0.20 in5.1 mm
09:33 AM 44.7°F7.1°C 44.8°F7.1°C 100% 1.0 mph S1.6 kmh S -- 29.60 in1002.4 mb 0.00 in0.0 mm 0.00 in0.0 mm 0.20 in5.1 mm
09:38 AM 44.9°F7.2°C 45.0°F7.2°C 100% 2.0 mph SE3.2 kmh SE -- 29.60 in1002.4 mb 0.00 in0.0 mm 0.00 in0.0 mm 0.20 in5.1 mm
09:43 AM 45.0°F7.2°C 45.0°F7.2°C 100% 2.0 mph SSE3.2 kmh SSE -- 29.60 in1002.4 mb 0.00 in0.0 mm 0.00 in0.0 mm 0.20 in5.1 mm
09:48 AM 45.2°F7.3°C 45.1°F7.3°C 100% 2.0 mph SSW3.2 kmh SSW -- 29.60 in1002.4 mb 0.00 in0.0 mm 0.00 in0.0 mm 0.20 in5.1 mm
09:53 AM 45.5°F7.5°C 45.5°F7.5°C 100% 1.0 mph SE1.6 kmh SE -- 29.59 in1002.0 mb 0.00 in0.0 mm 0.00 in0.0 mm 0.20 in5.1 mm
09:58 AM 45.5°F7.5°C 45.5°F7.5°C 100% 3.0 mph SSE4.8 kmh SSE -- 29.59 in1002.0 mb 0.00 in0.0 mm 0.00 in0.0 mm 0.20 in5.1 mm
10:03 AM 45.6°F7.6°C 45.7°F7.6°C 100% 2.0 mph SSE3.2 kmh SSE -- 29.59 in1002.0 mb 0.00 in0.0 mm 0.00 in0.0 mm 0.20 in5.1 mm
10:08 AM 45.8°F7.7°C 45.9°F7.7°C 100% 2.0 mph NNW3.2 kmh NNW -- 29.59 in1002.0 mb 0.00 in0.0 mm 0.00 in0.0 mm 0.20 in5.1 mm
10:13 AM 45.7°F7.6°C 45.7°F7.6°C 100% 4.0 mph S6.4 kmh S -- 29.59 in1002.0 mb 0.00 in0.0 mm 0.00 in0.0 mm 0.20 in5.1 mm
10:18 AM 45.4°F7.4°C 45.3°F7.4°C 100% 6.0 mph SSW9.7 kmh SSW -- 29.59 in1002.0 mb 0.00 in0.0 mm 0.00 in0.0 mm 0.20 in5.1 mm
10:23 AM 45.3°F7.4°C 45.3°F7.4°C 100% 4.0 mph W6.4 kmh W -- 29.59 in1002.0 mb 0.00 in0.0 mm 0.00 in0.0 mm 0.20 in5.1 mm
10:28 AM 45.3°F7.4°C 45.3°F7.4°C 100% 3.0 mph S4.8 kmh S -- 29.59 in1002.0 mb 0.00 in0.0 mm 0.00 in0.0 mm 0.20 in5.1 mm
10:33 AM 45.5°F7.5°C 45.5°F7.5°C 100% 3.0 mph WSW4.8 kmh WSW -- 29.59 in1002.0 mb 0.00 in0.0 mm 0.00 in0.0 mm 0.20 in5.1 mm
10:38 AM 45.5°F7.5°C 45.5°F7.5°C 100% 4.0 mph SSW6.4 kmh SSW -- 29.59 in1002.0 mb 0.00 in0.0 mm 0.00 in0.0 mm 0.20 in5.1 mm
10:43 AM 45.4°F7.4°C 45.3°F7.4°C 100% 4.0 mph SW6.4 kmh SW -- 29.59 in1002.0 mb 0.00 in0.0 mm 0.00 in0.0 mm 0.20 in5.1 mm
10:48 AM 46.2°F7.9°C 46.2°F7.9°C 100% 2.0 mph S3.2 kmh S -- 29.58 in1001.7 mb 0.00 in0.0 mm 0.00 in0.0 mm 0.20 in5.1 mm
10:53 AM 46.4°F8.0°C 45.9°F7.7°C 98% 7.0 mph WSW11.3 kmh WSW -- 29.58 in1001.7 mb 0.00 in0.0 mm 0.00 in0.0 mm 0.20 in5.1 mm
10:58 AM 46.5°F8.1°C 46.0°F7.8°C 98% Calm Calm -- 29.58 in1001.7 mb 0.00 in0.0 mm 0.00 in0.0 mm 0.20 in5.1 mm
11:03 AM 46.9°F8.3°C 46.4°F8.0°C 98% 2.0 mph S3.2 kmh S -- 29.57 in1001.4 mb 0.00 in0.0 mm 0.00 in0.0 mm 0.20 in5.1 mm
11:08 AM 46.9°F8.3°C 45.8°F7.7°C 96% 4.0 mph SW6.4 kmh SW -- 29.57 in1001.4 mb 0.00 in0.0 mm 0.00 in0.0 mm 0.20 in5.1 mm
11:13 AM 47.6°F8.7°C 46.3°F7.9°C 95% 2.0 mph S3.2 kmh S -- 29.57 in1001.4 mb 0.00 in0.0 mm 0.00 in0.0 mm 0.20 in5.1 mm
11:18 AM 47.9°F8.8°C 46.5°F8.1°C 95% 2.0 mph SE3.2 kmh SE -- 29.57 in1001.4 mb 0.00 in0.0 mm 0.00 in0.0 mm 0.20 in5.1 mm
11:23 AM 48.0°F8.9°C 46.6°F8.1°C 95% 2.0 mph NE3.2 kmh NE -- 29.57 in1001.4 mb 0.00 in0.0 mm 0.00 in0.0 mm 0.20 in5.1 mm
11:28 AM 48.4°F9.1°C 46.7°F8.2°C 94% 3.0 mph S4.8 kmh S -- 29.57 in1001.4 mb 0.00 in0.0 mm 0.00 in0.0 mm 0.20 in5.1 mm
11:33 AM 48.5°F9.2°C 46.6°F8.1°C 93% 3.0 mph 4.8 kmh -- 29.56 in1001.0 mb 0.00 in0.0 mm 0.00 in0.0 mm 0.20 in5.1 mm
11:38 AM 48.5°F9.2°C 46.6°F8.1°C 93% 3.0 mph WSW4.8 kmh WSW -- 29.56 in1001.0 mb 0.00 in0.0 mm 0.00 in0.0 mm 0.20 in5.1 mm
11:43 AM 48.5°F9.2°C 46.3°F7.9°C 92% 3.0 mph WSW4.8 kmh WSW -- 29.56 in1001.0 mb 0.00 in0.0 mm 0.00 in0.0 mm 0.20 in5.1 mm
11:51 AM 48.5°F9.2°C 46.3°F7.9°C 92% 7.0 mph SW11.3 kmh SW -- 29.56 in1001.0 mb 0.00 in0.0 mm 0.00 in0.0 mm 0.20 in5.1 mm
11:53 AM 48.9°F9.4°C 46.4°F8.0°C 91% 6.0 mph SW9.7 kmh SW -- 29.56 in1001.0 mb 0.00 in0.0 mm 0.00 in0.0 mm 0.20 in5.1 mm
11:58 AM 49.0°F9.4°C 46.7°F8.2°C 92% 5.0 mph NW8.0 kmh NW -- 29.56 in1001.0 mb 0.00 in0.0 mm 0.00 in0.0 mm 0.20 in5.1 mm
12:03 PM 48.7°F9.3°C 46.2°F7.9°C 91% 3.0 mph SSE4.8 kmh SSE -- 29.55 in1000.7 mb 0.00 in0.0 mm 0.00 in0.0 mm 0.20 in5.1 mm
12:08 PM 48.9°F9.4°C 46.7°F8.2°C 92% 3.0 mph S4.8 kmh S -- 29.55 in1000.7 mb 0.00 in0.0 mm 0.00 in0.0 mm 0.20 in5.1 mm
12:13 PM 49.1°F9.5°C 46.6°F8.1°C 91% 6.0 mph SSW9.7 kmh SSW -- 29.56 in1001.0 mb 0.00 in0.0 mm 0.00 in0.0 mm 0.20 in5.1 mm
12:18 PM 49.1°F9.5°C 46.9°F8.3°C 92% 3.0 mph SW4.8 kmh SW -- 29.55 in1000.7 mb 0.00 in0.0 mm 0.00 in0.0 mm 0.20 in5.1 mm
12:23 PM 49.6°F9.8°C 47.1°F8.4°C 91% 7.0 mph S11.3 kmh S -- 29.55 in1000.7 mb 0.00 in0.0 mm 0.00 in0.0 mm 0.20 in5.1 mm
12:28 PM 51.0°F10.6°C 48.2°F9.0°C 90% 3.0 mph N4.8 kmh N -- 29.56 in1001.0 mb 0.00 in0.0 mm 0.00 in0.0 mm 0.20 in5.1 mm
12:33 PM 50.7°F10.4°C 47.9°F8.8°C 90% 4.0 mph SSW6.4 kmh SSW -- 29.55 in1000.7 mb 0.00 in0.0 mm 0.00 in0.0 mm 0.20 in5.1 mm
12:38 PM 51.0°F10.6°C 48.2°F9.0°C 90% 2.0 mph ENE3.2 kmh ENE -- 29.56 in1001.0 mb 0.00 in0.0 mm 0.00 in0.0 mm 0.20 in5.1 mm
12:43 PM 51.1°F10.6°C 48.2°F9.0°C 90% 8.0 mph NW12.9 kmh NW -- 29.56 in1001.0 mb 0.00 in0.0 mm 0.00 in0.0 mm 0.20 in5.1 mm
12:48 PM 51.2°F10.7°C 48.4°F9.1°C 90% 2.0 mph ESE3.2 kmh ESE -- 29.56 in1001.0 mb 0.00 in0.0 mm 0.00 in0.0 mm 0.20 in5.1 mm
12:53 PM 51.7°F10.9°C 48.8°F9.3°C 90% 7.0 mph SW11.3 kmh SW -- 29.56 in1001.0 mb 0.00 in0.0 mm 0.00 in0.0 mm 0.20 in5.1 mm
12:58 PM 51.4°F10.8°C 48.0°F8.9°C 88% 4.0 mph NNW6.4 kmh NNW -- 29.56 in1001.0 mb 0.00 in0.0 mm 0.00 in0.0 mm 0.20 in5.1 mm
01:03 PM 51.7°F10.9°C 47.8°F8.8°C 87% 8.0 mph WSW12.9 kmh WSW -- 29.56 in1001.0 mb 0.00 in0.0 mm 0.00 in0.0 mm 0.20 in5.1 mm
01:08 PM 52.0°F11.1°C 48.5°F9.2°C 88% 1.0 mph SW1.6 kmh SW -- 29.56 in1001.0 mb 0.00 in0.0 mm 0.00 in0.0 mm 0.20 in5.1 mm
01:13 PM 52.9°F11.6°C 48.4°F9.1°C 85% 6.0 mph S9.7 kmh S -- 29.57 in1001.4 mb 0.00 in0.0 mm 0.00 in0.0 mm 0.20 in5.1 mm
01:18 PM 53.2°F11.8°C 49.1°F9.5°C 86% 2.0 mph SSE3.2 kmh SSE -- 29.56 in1001.0 mb 0.00 in0.0 mm 0.00 in0.0 mm 0.20 in5.1 mm
01:23 PM 53.4°F11.9°C 49.0°F9.4°C 85% 3.0 mph NW4.8 kmh NW -- 29.56 in1001.0 mb 0.01 in0.3 mm 0.12 in3.0 mm 0.21 in5.3 mm
01:28 PM 53.4°F11.9°C 49.0°F9.4°C 85% 2.0 mph SSW3.2 kmh SSW -- 29.56 in1001.0 mb 0.01 in0.3 mm 0.00 in0.0 mm 0.21 in5.3 mm
01:33 PM 53.8°F12.1°C 49.3°F9.6°C 85% 3.0 mph N4.8 kmh N -- 29.56 in1001.0 mb 0.01 in0.3 mm 0.00 in0.0 mm 0.21 in5.3 mm
01:38 PM 54.5°F12.5°C 49.7°F9.8°C 84% 11.0 mph SSW17.7 kmh SSW -- 29.56 in1001.0 mb 0.01 in0.3 mm 0.00 in0.0 mm 0.21 in5.3 mm
01:43 PM 54.5°F12.5°C 49.1°F9.5°C 82% 2.0 mph S3.2 kmh S -- 29.55 in1000.7 mb 0.01 in0.3 mm 0.00 in0.0 mm 0.21 in5.3 mm
01:48 PM 54.2°F12.3°C 48.7°F9.3°C 82% 4.0 mph SW6.4 kmh SW -- 29.56 in1001.0 mb 0.01 in0.3 mm 0.00 in0.0 mm 0.21 in5.3 mm
01:53 PM 54.8°F12.7°C 49.4°F9.7°C 82% 3.0 mph S4.8 kmh S -- 29.56 in1001.0 mb 0.01 in0.3 mm 0.00 in0.0 mm 0.21 in5.3 mm
01:58 PM 54.5°F12.5°C 48.4°F9.1°C 80% 7.0 mph WSW11.3 kmh WSW -- 29.56 in1001.0 mb 0.01 in0.3 mm 0.00 in0.0 mm 0.21 in5.3 mm
02:03 PM 54.4°F12.4°C 48.6°F9.2°C 81% 2.0 mph WSW3.2 kmh WSW -- 29.56 in1001.0 mb 0.01 in0.3 mm 0.00 in0.0 mm 0.21 in5.3 mm
02:08 PM 54.4°F12.4°C 48.6°F9.2°C 81% 6.0 mph SW9.7 kmh SW -- 29.56 in1001.0 mb 0.01 in0.3 mm 0.00 in0.0 mm 0.21 in5.3 mm
02:13 PM 54.3°F12.4°C 48.9°F9.4°C 82% 3.0 mph S4.8 kmh S -- 29.57 in1001.4 mb 0.01 in0.3 mm 0.00 in0.0 mm 0.21 in5.3 mm
02:18 PM 54.2°F12.3°C 48.4°F9.1°C 81% 2.0 mph S3.2 kmh S -- 29.57 in1001.4 mb 0.00 in0.0 mm 0.00 in0.0 mm 0.21 in5.3 mm
02:23 PM 53.9°F12.2°C 48.5°F9.2°C 82% 2.0 mph WSW3.2 kmh WSW -- 29.57 in1001.4 mb 0.00 in0.0 mm 0.00 in0.0 mm 0.21 in5.3 mm
02:28 PM 53.7°F12.1°C 48.7°F9.3°C 83% 2.0 mph WNW3.2 kmh WNW -- 29.58 in1001.7 mb 0.00 in0.0 mm 0.00 in0.0 mm 0.21 in5.3 mm
02:33 PM 53.4°F11.9°C 48.0°F8.9°C 82% 3.0 mph S4.8 kmh S -- 29.58 in1001.7 mb 0.00 in0.0 mm 0.00 in0.0 mm 0.21 in5.3 mm
02:38 PM 53.4°F11.9°C 48.3°F9.1°C 83% 3.0 mph SSW4.8 kmh SSW -- 29.58 in1001.7 mb 0.00 in0.0 mm 0.00 in0.0 mm 0.21 in5.3 mm
02:43 PM 53.3°F11.8°C 48.2°F9.0°C 83% 2.0 mph WSW3.2 kmh WSW -- 29.58 in1001.7 mb 0.00 in0.0 mm 0.00 in0.0 mm 0.21 in5.3 mm
02:48 PM 53.5°F11.9°C 48.7°F9.3°C 84% 2.0 mph S3.2 kmh S -- 29.58 in1001.7 mb 0.00 in0.0 mm 0.00 in0.0 mm 0.21 in5.3 mm
02:53 PM 54.3°F12.4°C 48.9°F9.4°C 82% 7.0 mph S11.3 kmh S -- 29.58 in1001.7 mb 0.00 in0.0 mm 0.00 in0.0 mm 0.21 in5.3 mm
02:58 PM 55.4°F13.0°C 48.9°F9.4°C 79% 1.0 mph WSW1.6 kmh WSW -- 29.58 in1001.7 mb 0.00 in0.0 mm 0.00 in0.0 mm 0.21 in5.3 mm
03:03 PM 55.4°F13.0°C 48.9°F9.4°C 79% 4.0 mph WSW6.4 kmh WSW -- 29.58 in1001.7 mb 0.00 in0.0 mm 0.00 in0.0 mm 0.21 in5.3 mm
03:08 PM 55.3°F12.9°C 48.8°F9.3°C 79% 2.0 mph SSW3.2 kmh SSW -- 29.58 in1001.7 mb 0.00 in0.0 mm 0.00 in0.0 mm 0.21 in5.3 mm
03:13 PM 55.2°F12.9°C 48.8°F9.3°C 79% 3.0 mph SE4.8 kmh SE -- 29.59 in1002.0 mb 0.00 in0.0 mm 0.00 in0.0 mm 0.21 in5.3 mm
03:18 PM 55.0°F12.8°C 48.9°F9.4°C 80% 6.0 mph SW9.7 kmh SW -- 29.59 in1002.0 mb 0.00 in0.0 mm 0.00 in0.0 mm 0.21 in5.3 mm
03:23 PM 54.8°F12.7°C 48.7°F9.3°C 80% 9.0 mph N14.5 kmh N -- 29.59 in1002.0 mb 0.00 in0.0 mm 0.00 in0.0 mm 0.21 in5.3 mm
03:28 PM 54.7°F12.6°C 48.6°F9.2°C 80% 4.0 mph WSW6.4 kmh WSW -- 29.59 in1002.0 mb 0.00 in0.0 mm 0.00 in0.0 mm 0.21 in5.3 mm
03:33 PM 54.7°F12.6°C 48.2°F9.0°C 79% 6.0 mph WSW9.7 kmh WSW -- 29.60 in1002.4 mb 0.00 in0.0 mm 0.00 in0.0 mm 0.21 in5.3 mm
03:38 PM 54.5°F12.5°C 48.4°F9.1°C 80% 3.0 mph SSW4.8 kmh SSW -- 29.60 in1002.4 mb 0.00 in0.0 mm 0.00 in0.0 mm 0.21 in5.3 mm
03:43 PM 54.2°F12.3°C 46.7°F8.2°C 76% 7.0 mph SW11.3 kmh SW -- 29.61 in1002.7 mb 0.00 in0.0 mm 0.00 in0.0 mm 0.21 in5.3 mm
03:48 PM 54.1°F12.3°C 45.2°F7.3°C 72% 9.0 mph W14.5 kmh W -- 29.61 in1002.7 mb 0.00 in0.0 mm 0.00 in0.0 mm 0.21 in5.3 mm
03:53 PM 54.1°F12.3°C 44.1°F6.7°C 69% 2.0 mph SSE3.2 kmh SSE -- 29.62 in1003.0 mb 0.00 in0.0 mm 0.00 in0.0 mm 0.21 in5.3 mm
03:58 PM 53.9°F12.2°C 42.8°F6.0°C 66% 4.0 mph NW6.4 kmh NW -- 29.62 in1003.0 mb 0.00 in0.0 mm 0.00 in0.0 mm 0.21 in5.3 mm
04:03 PM 53.9°F12.2°C 42.4°F5.8°C 65% 8.0 mph WNW12.9 kmh WNW -- 29.63 in1003.4 mb 0.00 in0.0 mm 0.00 in0.0 mm 0.21 in5.3 mm
04:08 PM 53.9°F12.2°C 41.9°F5.5°C 64% 6.0 mph N9.7 kmh N -- 29.63 in1003.4 mb 0.00 in0.0 mm 0.00 in0.0 mm 0.21 in5.3 mm
04:13 PM 53.7°F12.1°C 41.4°F5.2°C 63% 4.0 mph NW6.4 kmh NW -- 29.63 in1003.4 mb 0.00 in0.0 mm 0.00 in0.0 mm 0.21 in5.3 mm
04:18 PM 53.7°F12.1°C 41.4°F5.2°C 63% 3.0 mph NNE4.8 kmh NNE -- 29.64 in1003.7 mb 0.00 in0.0 mm 0.00 in0.0 mm 0.21 in5.3 mm
04:23 PM 53.7°F12.1°C 42.2°F5.7°C 65% 6.0 mph W9.7 kmh W -- 29.64 in1003.7 mb 0.00 in0.0 mm 0.00 in0.0 mm 0.21 in5.3 mm
04:28 PM 53.4°F11.9°C 41.4°F5.2°C 64% 13.0 mph NW20.9 kmh NW -- 29.65 in1004.1 mb 0.00 in0.0 mm 0.00 in0.0 mm 0.21 in5.3 mm
04:33 PM 53.1°F11.7°C 41.5°F5.3°C 65% 6.0 mph NNW9.7 kmh NNW -- 29.65 in1004.1 mb 0.00 in0.0 mm 0.00 in0.0 mm 0.21 in5.3 mm
04:38 PM 52.8°F11.6°C 40.9°F4.9°C 64% 6.0 mph WNW9.7 kmh WNW -- 29.65 in1004.1 mb 0.00 in0.0 mm 0.00 in0.0 mm 0.21 in5.3 mm
04:43 PM 52.5°F11.4°C 41.0°F5.0°C 65% 11.0 mph NNW17.7 kmh NNW -- 29.66 in1004.4 mb 0.00 in0.0 mm 0.00 in0.0 mm 0.21 in5.3 mm
04:48 PM 52.2°F11.2°C 41.0°F5.0°C 66% 9.0 mph NNW14.5 kmh NNW -- 29.66 in1004.4 mb 0.00 in0.0 mm 0.00 in0.0 mm 0.21 in5.3 mm
04:53 PM 52.1°F11.2°C 40.6°F4.8°C 65% 5.0 mph W8.0 kmh W -- 29.67 in1004.7 mb 0.00 in0.0 mm 0.00 in0.0 mm 0.21 in5.3 mm
04:58 PM 52.0°F11.1°C 40.9°F4.9°C 66% 9.0 mph W14.5 kmh W -- 29.67 in1004.7 mb 0.00 in0.0 mm 0.00 in0.0 mm 0.21 in5.3 mm
05:03 PM 51.8°F11.0°C 41.1°F5.1°C 67% 10.0 mph N16.1 kmh N -- 29.67 in1004.7 mb 0.00 in0.0 mm 0.00 in0.0 mm 0.21 in5.3 mm
05:08 PM 51.7°F10.9°C 40.9°F4.9°C 67% 3.0 mph WNW4.8 kmh WNW -- 29.68 in1005.1 mb 0.00 in0.0 mm 0.00 in0.0 mm 0.21 in5.3 mm
05:13 PM 51.6°F10.9°C 40.9°F4.9°C 67% 3.0 mph N4.8 kmh N -- 29.68 in1005.1 mb 0.00 in0.0 mm 0.00 in0.0 mm 0.21 in5.3 mm
05:18 PM 51.5°F10.8°C 40.7°F4.8°C 67% 4.0 mph WNW6.4 kmh WNW -- 29.68 in1005.1 mb 0.00 in0.0 mm 0.00 in0.0 mm 0.21 in5.3 mm
05:23 PM 51.4°F10.8°C 40.4°F4.7°C 66% 7.0 mph NNW11.3 kmh NNW -- 29.68 in1005.1 mb 0.00 in0.0 mm 0.00 in0.0 mm 0.21 in5.3 mm
05:28 PM 51.3°F10.7°C 40.2°F4.6°C 66% 7.0 mph WSW11.3 kmh WSW -- 29.69 in1005.4 mb 0.00 in0.0 mm 0.00 in0.0 mm 0.21 in5.3 mm
05:33 PM 51.3°F10.7°C 39.8°F4.3°C 65% 6.0 mph N9.7 kmh N -- 29.69 in1005.4 mb 0.00 in0.0 mm 0.00 in0.0 mm 0.21 in5.3 mm
05:38 PM 51.0°F10.6°C 40.8°F4.9°C 68% 3.0 mph NNE4.8 kmh NNE -- 29.70 in1005.8 mb 0.00 in0.0 mm 0.00 in0.0 mm 0.21 in5.3 mm
05:43 PM 50.7°F10.4°C 40.8°F4.9°C 69% 5.0 mph N8.0 kmh N -- 29.71 in1006.1 mb 0.00 in0.0 mm 0.00 in0.0 mm 0.21 in5.3 mm
05:48 PM 50.3°F10.2°C 40.8°F4.9°C 70% 4.0 mph N6.4 kmh N -- 29.71 in1006.1 mb 0.00 in0.0 mm 0.00 in0.0 mm 0.21 in5.3 mm
05:53 PM 50.0°F10.0°C 40.5°F4.7°C 70% 4.0 mph SW6.4 kmh SW -- 29.72 in1006.4 mb 0.00 in0.0 mm 0.00 in0.0 mm 0.21 in5.3 mm
05:58 PM 49.8°F9.9°C 40.0°F4.4°C 69% 10.0 mph NE16.1 kmh NE -- 29.72 in1006.4 mb 0.00 in0.0 mm 0.00 in0.0 mm 0.21 in5.3 mm
06:03 PM 50.0°F10.0°C 39.7°F4.3°C 68% 7.0 mph NW11.3 kmh NW -- 29.72 in1006.4 mb 0.00 in0.0 mm 0.00 in0.0 mm 0.21 in5.3 mm
06:08 PM 49.9°F9.9°C 39.6°F4.2°C 68% 10.0 mph NW16.1 kmh NW -- 29.73 in1006.8 mb 0.00 in0.0 mm 0.00 in0.0 mm 0.21 in5.3 mm
06:13 PM 49.7°F9.8°C 39.8°F4.3°C 69% 7.0 mph NNW11.3 kmh NNW -- 29.73 in1006.8 mb 0.00 in0.0 mm 0.00 in0.0 mm 0.21 in5.3 mm
06:18 PM 49.2°F9.6°C 39.4°F4.1°C 69% 3.0 mph NW4.8 kmh NW -- 29.74 in1007.1 mb 0.00 in0.0 mm 0.00 in0.0 mm 0.21 in5.3 mm
06:23 PM 49.0°F9.4°C 39.5°F4.2°C 70% 8.0 mph NNW12.9 kmh NNW -- 29.74 in1007.1 mb 0.00 in0.0 mm 0.00 in0.0 mm 0.21 in5.3 mm
06:28 PM 49.0°F9.4°C 39.5°F4.2°C 70% 2.0 mph N3.2 kmh N -- 29.75 in1007.5 mb 0.00 in0.0 mm 0.00 in0.0 mm 0.21 in5.3 mm
06:33 PM 48.9°F9.4°C 39.5°F4.2°C 70% 3.0 mph NW4.8 kmh NW -- 29.75 in1007.5 mb 0.00 in0.0 mm 0.00 in0.0 mm 0.21 in5.3 mm
06:38 PM 48.6°F9.2°C 39.1°F3.9°C 70% 15.0 mph N24.1 kmh N -- 29.75 in1007.5 mb 0.00 in0.0 mm 0.00 in0.0 mm 0.21 in5.3 mm
06:43 PM 48.7°F9.3°C 39.3°F4.1°C 70% 10.0 mph NW16.1 kmh NW -- 29.76 in1007.8 mb 0.00 in0.0 mm 0.00 in0.0 mm 0.21 in5.3 mm
06:48 PM 48.3°F9.1°C 38.9°F3.8°C 70% 3.0 mph NE4.8 kmh NE -- 29.76 in1007.8 mb 0.00 in0.0 mm 0.00 in0.0 mm 0.21 in5.3 mm
06:53 PM 48.1°F8.9°C 39.0°F3.9°C 71% 4.0 mph WSW6.4 kmh WSW -- 29.76 in1007.8 mb 0.00 in0.0 mm 0.00 in0.0 mm 0.21 in5.3 mm
06:58 PM 47.6°F8.7°C 39.0°F3.9°C 72% 6.0 mph WSW9.7 kmh WSW -- 29.77 in1008.1 mb 0.00 in0.0 mm 0.00 in0.0 mm 0.21 in5.3 mm
07:03 PM 47.5°F8.6°C 38.8°F3.8°C 72% 4.0 mph NNE6.4 kmh NNE -- 29.76 in1007.8 mb 0.00 in0.0 mm 0.00 in0.0 mm 0.21 in5.3 mm
07:08 PM 47.3°F8.5°C 39.0°F3.9°C 73% 3.0 mph WSW4.8 kmh WSW -- 29.76 in1007.8 mb 0.00 in0.0 mm 0.00 in0.0 mm 0.21 in5.3 mm
07:13 PM 47.1°F8.4°C 38.8°F3.8°C 73% 2.0 mph SW3.2 kmh SW -- 29.77 in1008.1 mb 0.00 in0.0 mm 0.00 in0.0 mm 0.21 in5.3 mm
07:18 PM 46.8°F8.2°C 38.5°F3.6°C 73% 2.0 mph E3.2 kmh E -- 29.77 in1008.1 mb 0.00 in0.0 mm 0.00 in0.0 mm 0.21 in5.3 mm
07:23 PM 46.9°F8.3°C 38.6°F3.7°C 73% 3.0 mph WSW4.8 kmh WSW -- 29.77 in1008.1 mb 0.00 in0.0 mm 0.00 in0.0 mm 0.21 in5.3 mm
07:28 PM 46.7°F8.2°C 38.5°F3.6°C 73% 4.0 mph NNW6.4 kmh NNW -- 29.78 in1008.5 mb 0.00 in0.0 mm 0.00 in0.0 mm 0.21 in5.3 mm
07:33 PM 46.6°F8.1°C 38.6°F3.7°C 74% 5.0 mph SW8.0 kmh SW -- 29.78 in1008.5 mb 0.00 in0.0 mm 0.00 in0.0 mm 0.21 in5.3 mm
07:38 PM 46.4°F8.0°C 38.8°F3.8°C 75% 7.0 mph NW11.3 kmh NW -- 29.78 in1008.5 mb 0.00 in0.0 mm 0.00 in0.0 mm 0.21 in5.3 mm
07:43 PM 46.2°F7.9°C 38.3°F3.5°C 74% 7.0 mph NW11.3 kmh NW -- 29.79 in1008.8 mb 0.00 in0.0 mm 0.00 in0.0 mm 0.21 in5.3 mm
07:48 PM 46.1°F7.8°C 38.5°F3.6°C 75% 4.0 mph NNW6.4 kmh NNW -- 29.79 in1008.8 mb 0.00 in0.0 mm 0.00 in0.0 mm 0.21 in5.3 mm
07:53 PM 45.7°F7.6°C 38.1°F3.4°C 75% 2.0 mph NW3.2 kmh NW -- 29.80 in1009.1 mb 0.00 in0.0 mm 0.00 in0.0 mm 0.21 in5.3 mm
07:58 PM 45.6°F7.6°C 38.1°F3.4°C 75% 3.0 mph N4.8 kmh N -- 29.80 in1009.1 mb 0.00 in0.0 mm 0.00 in0.0 mm 0.21 in5.3 mm
08:03 PM 45.5°F7.5°C 38.0°F3.3°C 75% 4.0 mph NW6.4 kmh NW -- 29.80 in1009.1 mb 0.00 in0.0 mm 0.00 in0.0 mm 0.21 in5.3 mm
08:08 PM 45.4°F7.4°C 37.8°F3.2°C 75% 3.0 mph NW4.8 kmh NW -- 29.80 in1009.1 mb 0.00 in0.0 mm 0.00 in0.0 mm 0.21 in5.3 mm
08:13 PM 45.2°F7.3°C 37.9°F3.3°C 76% 2.0 mph WSW3.2 kmh WSW -- 29.81 in1009.5 mb 0.00 in0.0 mm 0.00 in0.0 mm 0.21 in5.3 mm
08:18 PM 45.0°F7.2°C 37.8°F3.2°C 76% 1.0 mph SE1.6 kmh SE -- 29.81 in1009.5 mb 0.00 in0.0 mm 0.00 in0.0 mm 0.21 in5.3 mm
08:23 PM 44.8°F7.1°C 37.6°F3.1°C 76% 4.0 mph W6.4 kmh W -- 29.81 in1009.5 mb 0.00 in0.0 mm 0.00 in0.0 mm 0.21 in5.3 mm
08:28 PM 44.6°F7.0°C 37.4°F3.0°C 76% Calm Calm -- 29.82 in1009.8 mb 0.00 in0.0 mm 0.00 in0.0 mm 0.21 in5.3 mm
08:33 PM 44.4°F6.9°C 37.2°F2.9°C 76% 4.0 mph NNW6.4 kmh NNW -- 29.82 in1009.8 mb 0.00 in0.0 mm 0.00 in0.0 mm 0.21 in5.3 mm
08:38 PM 44.5°F6.9°C 37.2°F2.9°C 76% 5.0 mph W8.0 kmh W -- 29.83 in1010.2 mb 0.00 in0.0 mm 0.00 in0.0 mm 0.21 in5.3 mm
08:43 PM 44.5°F6.9°C 37.6°F3.1°C 77% 3.0 mph NE4.8 kmh NE -- 29.83 in1010.2 mb 0.00 in0.0 mm 0.00 in0.0 mm 0.21 in5.3 mm
08:48 PM 44.3°F6.8°C 37.4°F3.0°C 77% 6.0 mph S9.7 kmh S -- 29.83 in1010.2 mb 0.00 in0.0 mm 0.00 in0.0 mm 0.21 in5.3 mm
08:53 PM 44.2°F6.8°C 37.4°F3.0°C 77% 5.0 mph WNW8.0 kmh WNW -- 29.83 in1010.2 mb 0.00 in0.0 mm 0.00 in0.0 mm 0.21 in5.3 mm
08:58 PM 44.2°F6.8°C 37.4°F3.0°C 77% 2.0 mph WSW3.2 kmh WSW -- 29.83 in1010.2 mb 0.00 in0.0 mm 0.00 in0.0 mm 0.21 in5.3 mm
09:03 PM 44.0°F6.7°C 37.2°F2.9°C 77% 2.0 mph W3.2 kmh W -- 29.84 in1010.5 mb 0.00 in0.0 mm 0.00 in0.0 mm 0.21 in5.3 mm
09:08 PM 43.8°F6.6°C 37.4°F3.0°C 78% 1.0 mph SE1.6 kmh SE -- 29.84 in1010.5 mb 0.00 in0.0 mm 0.00 in0.0 mm 0.21 in5.3 mm
09:13 PM 43.7°F6.5°C 36.9°F2.7°C 77% 3.0 mph SW4.8 kmh SW -- 29.84 in1010.5 mb 0.00 in0.0 mm 0.00 in0.0 mm 0.21 in5.3 mm
09:18 PM 43.5°F6.4°C 37.0°F2.8°C 78% 3.0 mph WSW4.8 kmh WSW -- 29.84 in1010.5 mb 0.00 in0.0 mm 0.00 in0.0 mm 0.21 in5.3 mm
09:23 PM 43.6°F6.4°C 36.7°F2.6°C 77% 2.0 mph NE3.2 kmh NE -- 29.84 in1010.5 mb 0.00 in0.0 mm 0.00 in0.0 mm 0.21 in5.3 mm
09:28 PM 43.5°F6.4°C 36.7°F2.6°C 77% 3.0 mph ESE4.8 kmh ESE -- 29.84 in1010.5 mb 0.00 in0.0 mm 0.00 in0.0 mm 0.21 in5.3 mm
09:33 PM 43.7°F6.5°C 36.2°F2.3°C 75% 3.0 mph WSW4.8 kmh WSW -- 29.84 in1010.5 mb 0.00 in0.0 mm 0.00 in0.0 mm 0.21 in5.3 mm
09:38 PM 43.7°F6.5°C 36.5°F2.5°C 76% 5.0 mph NNW8.0 kmh NNW -- 29.84 in1010.5 mb 0.00 in0.0 mm 0.00 in0.0 mm 0.21 in5.3 mm
09:43 PM 43.6°F6.4°C 36.0°F2.2°C 75% 2.0 mph NNW3.2 kmh NNW -- 29.85 in1010.8 mb 0.00 in0.0 mm 0.00 in0.0 mm 0.21 in5.3 mm
09:48 PM 43.5°F6.4°C 36.4°F2.4°C 76% 2.0 mph NW3.2 kmh NW -- 29.85 in1010.8 mb 0.00 in0.0 mm 0.00 in0.0 mm 0.21 in5.3 mm
09:53 PM 43.6°F6.4°C 36.0°F2.2°C 75% 1.0 mph WSW1.6 kmh WSW -- 29.85 in1010.8 mb 0.00 in0.0 mm 0.00 in0.0 mm 0.21 in5.3 mm
09:58 PM 43.4°F6.3°C 36.2°F2.3°C 76% 5.0 mph WSW8.0 kmh WSW -- 29.86 in1011.2 mb 0.00 in0.0 mm 0.00 in0.0 mm 0.21 in5.3 mm
10:03 PM 43.6°F6.4°C 36.0°F2.2°C 75% 5.0 mph WSW8.0 kmh WSW -- 29.86 in1011.2 mb 0.00 in0.0 mm 0.00 in0.0 mm 0.21 in5.3 mm
10:08 PM 43.5°F6.4°C 36.0°F2.2°C 75% 1.0 mph WSW1.6 kmh WSW -- 29.86 in1011.2 mb 0.00 in0.0 mm 0.00 in0.0 mm 0.21 in5.3 mm
10:13 PM 43.3°F6.3°C 35.9°F2.2°C 75% 3.0 mph NW4.8 kmh NW -- 29.86 in1011.2 mb 0.00 in0.0 mm 0.00 in0.0 mm 0.21 in5.3 mm
10:18 PM 43.2°F6.2°C 36.0°F2.2°C 76% 1.0 mph SSE1.6 kmh SSE -- 29.86 in1011.2 mb 0.00 in0.0 mm 0.00 in0.0 mm 0.21 in5.3 mm
10:23 PM 42.9°F6.1°C 35.8°F2.1°C 76% 2.0 mph WSW3.2 kmh WSW -- 29.87 in1011.5 mb 0.00 in0.0 mm 0.00 in0.0 mm 0.21 in5.3 mm
10:28 PM 42.7°F5.9°C 35.8°F2.1°C 77% 1.0 mph SW1.6 kmh SW -- 29.87 in1011.5 mb 0.00 in0.0 mm 0.00 in0.0 mm 0.21 in5.3 mm
10:33 PM 42.4°F5.8°C 36.0°F2.2°C 78% 2.0 mph W3.2 kmh W -- 29.87 in1011.5 mb 0.00 in0.0 mm 0.00 in0.0 mm 0.21 in5.3 mm
10:38 PM 42.0°F5.6°C 35.6°F2.0°C 78% Calm Calm -- 29.87 in1011.5 mb 0.00 in0.0 mm 0.00 in0.0 mm 0.21 in5.3 mm
10:43 PM 41.7°F5.4°C 35.6°F2.0°C 79% 2.0 mph ESE3.2 kmh ESE -- 29.87 in1011.5 mb 0.00 in0.0 mm 0.00 in0.0 mm 0.21 in5.3 mm
10:48 PM 41.5°F5.3°C 35.4°F1.9°C 79% 2.0 mph S3.2 kmh S -- 29.87 in1011.5 mb 0.00 in0.0 mm 0.00 in0.0 mm 0.21 in5.3 mm
10:53 PM 41.3°F5.2°C 35.3°F1.8°C 79% 2.0 mph SW3.2 kmh SW -- 29.87 in1011.5 mb 0.00 in0.0 mm 0.00 in0.0 mm 0.21 in5.3 mm
10:58 PM 41.4°F5.2°C 35.3°F1.8°C 79% 1.0 mph S1.6 kmh S -- 29.88 in1011.9 mb 0.00 in0.0 mm 0.00 in0.0 mm 0.21 in5.3 mm
11:03 PM 41.4°F5.2°C 35.3°F1.8°C 79% 1.0 mph SSW1.6 kmh SSW -- 29.88 in1011.9 mb 0.00 in0.0 mm 0.00 in0.0 mm 0.21 in5.3 mm
11:08 PM 41.2°F5.1°C 35.1°F1.7°C 79% Calm Calm -- 29.88 in1011.9 mb 0.00 in0.0 mm 0.00 in0.0 mm 0.21 in5.3 mm
11:13 PM 41.1°F5.1°C 35.4°F1.9°C 80% Calm Calm -- 29.88 in1011.9 mb 0.00 in0.0 mm 0.00 in0.0 mm 0.21 in5.3 mm
11:18 PM 41.0°F5.0°C 35.2°F1.8°C 80% 3.0 mph WSW4.8 kmh WSW -- 29.88 in1011.9 mb 0.00 in0.0 mm 0.00 in0.0 mm 0.21 in5.3 mm
11:23 PM 41.0°F5.0°C 35.2°F1.8°C 80% Calm Calm -- 29.88 in1011.9 mb 0.00 in0.0 mm 0.00 in0.0 mm 0.21 in5.3 mm
11:28 PM 40.6°F4.8°C 35.2°F1.8°C 81% Calm Calm -- 29.89 in1012.2 mb 0.00 in0.0 mm 0.00 in0.0 mm 0.21 in5.3 mm
11:33 PM 40.4°F4.7°C 35.0°F1.7°C 81% 1.0 mph S1.6 kmh S -- 29.89 in1012.2 mb 0.00 in0.0 mm 0.00 in0.0 mm 0.21 in5.3 mm
11:38 PM 40.3°F4.6°C 34.8°F1.6°C 81% 3.0 mph WSW4.8 kmh WSW -- 29.89 in1012.2 mb 0.00 in0.0 mm 0.00 in0.0 mm 0.21 in5.3 mm
11:43 PM 40.1°F4.5°C 34.7°F1.5°C 81% 2.0 mph SSW3.2 kmh SSW -- 29.89 in1012.2 mb 0.00 in0.0 mm 0.00 in0.0 mm 0.21 in5.3 mm
11:48 PM 39.9°F4.4°C 34.8°F1.6°C 82% 1.0 mph S1.6 kmh S -- 29.90 in1012.5 mb 0.00 in0.0 mm 0.00 in0.0 mm 0.21 in5.3 mm
11:54 PM 40.1°F4.5°C 35.0°F1.7°C 82% 4.0 mph WNW6.4 kmh WNW -- 29.90 in1012.5 mb 0.00 in0.0 mm 0.00 in0.0 mm 0.21 in5.3 mm
11:58 PM 40.2°F4.6°C 35.2°F1.8°C 82% 1.0 mph SW1.6 kmh SW -- 29.90 in1012.5 mb 0.00 in0.0 mm 0.00 in0.0 mm 0.21 in5.3 mm